• Join FlightAware (Why Join?)
  • Login
  • US Flag 
05:10AM EDT


 

Airport Tracker/Info


-or-


 

Live Flight TrackerFlight Track Log ✈ JZA8753 ✈ 24-Sep-2013 ✈ CYUL - CYVO

Flight Track Log - Related Links

Times and Time Zones

All times are in EDT time to prevent confusion due to time zone crossing. See the JZA8753 flight status page for this flight to view local times or setup timezone preferences in your user account.

Time Position Orientation Groundspeed Altitude Reporting Facility
EDT Latitude Longitude Course Direction KTS MPH feet Rate Location/Type
07:19PM 45.4500 -73.7167 90° East 140 161 100  Level Montreal Center
07:20PM 45.4500 -73.7000 90° East 220 253 100  Level Montreal Center
07:22PM 45.4805 -73.7814 298° West  Level FlightAware Approximate
07:26PM 45.4500 -73.7167 306° West 70 81 200  Level Montreal Center
07:27PM 45.4667 -73.7500 305° West 120 138 1,600 1,200 Climbing Montreal Center
07:28PM 45.4667 -73.8000 270° West 140 161 2,700 960 Climbing Montreal Center
07:29PM 45.7990 -74.2454 311° West  Level Estimated
07:29PM 45.5000 -73.8667 306° West 150 173 3,600  Level Montreal Center
07:30PM 45.8444 -74.3122 296° West  Level Estimated
07:30PM 45.5167 -73.9167 295° West 170 196 4,300  Level Montreal Center
07:31PM 45.8855 -74.3729 306° West  Level Estimated
07:31PM 45.5333 -73.9833 290° West 180 207 5,200  Level Montreal Center
07:32PM 45.5833 -74.0500 317° Northwest 190 219 5,900 720 Climbing Montreal Center
07:33PM 45.6000 -74.1000 295° West 190 219 6,700 720 Climbing Montreal Center
07:35PM 45.6500 -74.2500 296° West 180 207 8,100 600 Climbing Montreal Center
07:36PM 45.6833 -74.2833 325° Northwest 200 230 8,600 600 Climbing Montreal Center
07:37PM 45.7167 -74.3667 300° West 200 230 9,300 600 Climbing Montreal Center
07:38PM 45.7500 -74.4333 306° West 190 219 9,900 600 Climbing Montreal Center
07:39PM 45.7833 -74.4833 314° West 190 219 10,600 600 Climbing Montreal Center
07:40PM 45.8167 -74.5167 325° Northwest 180 207 11,200 600 Climbing Montreal Center
07:41PM 45.8500 -74.5667 314° West 190 219 11,800 600 Climbing Montreal Center
07:42PM 45.9000 -74.6167 325° Northwest 190 219 12,400 540 Climbing Montreal Center
07:43PM 45.9333 -74.6833 306° West 190 219 12,900 540 Climbing Montreal Center
07:44PM 45.9667 -74.7333 314° West 190 219 13,500 540 Climbing Montreal Center
07:45PM 46.0000 -74.7833 314° West 190 219 14,000 480 Climbing Montreal Center
07:46PM 46.0500 -74.8333 325° Northwest 190 219 14,500 540 Climbing Montreal Center
07:47PM 46.0833 -74.8833 314° West 190 219 15,100 540 Climbing Montreal Center
07:48PM 46.1167 -74.9500 306° West 190 219 15,600 420 Climbing Montreal Center
07:49PM 46.1667 -75.0000 325° Northwest 190 219 16,000 180 Climbing Montreal Center
07:50PM 46.2167 -75.0500 325° Northwest 200 230 16,000  Level Montreal Center
07:51PM 46.2667 -75.1167 317° Northwest 210 242 16,000  Level Montreal Center
07:52PM 46.3000 -75.1667 314° West 220 253 16,000  Level Montreal Center
07:53PM 46.3500 -75.2333 317° Northwest 220 253 16,000  Level Montreal Center
07:54PM 46.4000 -75.2833 325° Northwest 220 253 16,000  Level Montreal Center
07:55PM 46.4333 -75.3667 300° West 230 265 16,000  Level Montreal Center
07:56PM 46.4833 -75.4000 335° Northwest 220 253 16,000  Level Montreal Center
07:57PM 46.5333 -75.4833 311° West 230 265 16,000  Level Montreal Center
07:58PM 46.5667 -75.5500 306° West 230 265 16,000 -60 Level Montreal Center
07:59PM 46.6167 -75.6000 326° Northwest 220 253 15,900 -60 Descending Montreal Center
08:00PM 46.6667 -75.6667 318° Northwest 230 265 15,900  Level Montreal Center
08:01PM 46.7167 -75.7167 326° Northwest 230 265 15,900  Level Montreal Center
08:02PM 46.7500 -75.8000 300° West 230 265 15,900  Level Montreal Center
08:03PM 46.8000 -75.8667 318° Northwest 240 276 15,900  Level Montreal Center
08:04PM 46.8500 -75.9167 326° Northwest 230 265 15,900  Level Montreal Center
08:05PM 46.9000 -76.0000 311° West 230 265 15,900  Level Montreal Center
08:06PM 46.9500 -76.0667 318° Northwest 230 265 15,900  Level Montreal Center
08:07PM 46.9833 -76.1333 306° West 230 265 15,900  Level Montreal Center
08:08PM 47.0333 -76.1833 326° Northwest 240 276 15,900  Level Montreal Center
08:09PM 47.0667 -76.2667 300° West 240 276 15,900  Level Montreal Center
08:10PM 47.1167 -76.3667 306° West 240 276 15,900  Level Montreal Center
08:11PM 47.1500 -76.4167 314° West 240 276 15,900  Level Montreal Center
08:12PM 47.2000 -76.5167 306° West 230 265 15,900  Level Montreal Center
08:13PM 47.2333 -76.5833 306° West 240 276 16,000  Climbing Montreal Center
08:14PM 47.2833 -76.6667 312° West 240 276 16,000  Level Montreal Center
08:15PM 47.3167 -76.7333 306° West 240 276 16,000  Level Montreal Center
08:16PM 47.3667 -76.8167 312° West 240 276 16,000  Level Montreal Center
08:17PM 47.4000 -76.8833 306° West 240 276 16,000  Level Montreal Center
08:18PM 47.4500 -76.9667 312° West 230 265 16,000 -300 Level Montreal Center
08:19PM 47.5000 -77.0333 318° Northwest 250 288 15,500 -900 Descending Montreal Center
08:20PM 47.5333 -77.1167 301° West 250 288 14,200 -1,380 Descending Montreal Center
08:21PM 47.5833 -77.2167 307° West 260 299 12,800 -1,440 Descending Montreal Center
08:23PM 47.6616 -77.3340 308° West  Level FlightAware Approximate
08:30PM 47.9362 -77.7411 345° North  Level FlightAware Approximate
08:31PM 47.9917 -77.7633 345° North  Level FlightAware Approximate
08:32PM 48.0488 -77.7667 North  Level FlightAware Approximate
08:33PM 48.0500 -77.7667 North  Level FlightAware Approximate
08:34PM 48.0533 -77.7828 North  Level Estimated
08:35PM 48.0533 -77.7828 North  Level Estimated